Time;durP1;ratioP1;P1;durP2;ratioP2;P2;SDS_P1;SDS_P2;PMS_P1;PMS_P2;Temp;Humidity;BMP_temperature;BMP_pressure;BME280_temperature;BME280_humidity;BME280_pressure;Samples;Min_cycle;Max_cycle;Signal;HPM_P1;HPM_P2
2022/08/17 00:00:25;;;;;;;53.70;44.88;;;19.70;99.90;;;;;;5081520;28;20043;-69
2022/08/17 00:03:01;;;;;;;46.33;41.25;;;19.70;99.90;;;;;;5110706;27;20063;-67
2022/08/17 00:05:31;;;;;;;45.90;40.10;;;19.70;99.90;;;;;;5121831;27;20054;-67
2022/08/17 00:07:57;;;;;;;45.63;40.65;;;19.80;99.90;;;;;;5121701;27;20042;-67
2022/08/17 00:10:23;;;;;;;55.65;45.80;;;19.60;99.90;;;;;;5120985;27;20043;-67
2022/08/17 00:12:49;;;;;;;56.38;45.65;;;19.60;99.90;;;;;;5122661;27;20038;-68
2022/08/17 00:15:17;;;;;;;53.50;47.63;;;19.60;99.90;;;;;;5121241;27;20891;-67
2022/08/17 00:17:46;;;;;;;55.17;46.25;;;19.50;99.90;;;;;;5122156;27;20043;-68
2022/08/17 00:20:12;;;;;;;57.20;47.42;;;19.50;99.90;;;;;;5110182;27;20266;-67
2022/08/17 00:22:38;;;;;;;51.13;43.65;;;19.50;99.90;;;;;;5120566;27;20081;-68
2022/08/17 00:25:08;;;;;;;48.97;42.38;;;19.60;99.90;;;;;;5114014;27;20349;-67
2022/08/17 00:27:35;;;;;;;50.60;44.28;;;19.50;99.90;;;;;;5120765;27;20065;-67
2022/08/17 00:30:02;;;;;;;52.10;43.35;;;19.50;99.90;;;;;;5109114;27;20042;-67
2022/08/17 00:32:28;;;;;;;53.25;44.72;;;19.60;99.90;;;;;;5120603;27;20073;-68
2022/08/17 00:34:54;;;;;;;56.72;47.65;;;19.50;99.90;;;;;;5120842;27;20066;-68
2022/08/17 00:37:19;;;;;;;51.00;42.67;;;19.40;99.90;;;;;;5099001;27;20133;-69
2022/08/17 00:39:45;;;;;;;53.17;45.28;;;19.60;99.90;;;;;;5121012;27;20134;-68
2022/08/17 00:42:16;;;;;;;57.92;49.10;;;19.40;99.90;;;;;;5121625;27;20655;-67
2022/08/17 00:44:42;;;;;;;57.92;47.28;;;19.40;99.90;;;;;;5121694;27;20049;-67
2022/08/17 00:47:07;;;;;;;59.28;47.58;;;19.50;99.90;;;;;;5119464;27;20469;-67
2022/08/17 00:49:33;;;;;;;49.05;43.80;;;19.50;99.90;;;;;;5121931;27;20114;-67
2022/08/17 00:52:05;;;;;;;55.13;45.83;;;19.50;99.90;;;;;;5121703;27;20046;-67
2022/08/17 00:54:38;;;;;;;57.50;47.20;;;19.50;99.90;;;;;;5094506;27;20046;-68
2022/08/17 00:57:04;;;;;;;56.35;47.72;;;19.50;99.90;;;;;;5120734;27;20043;-67
2022/08/17 00:59:42;;;;;;;61.55;50.00;;;19.40;99.90;;;;;;5096565;27;20114;-69
2022/08/17 01:02:11;;;;;;;53.60;45.08;;;19.30;99.90;;;;;;5121686;27;20049;-68
2022/08/17 01:04:38;;;;;;;51.58;45.97;;;19.30;99.90;;;;;;5122142;27;20452;-67
2022/08/17 01:07:04;;;;;;;56.20;46.60;;;19.50;99.90;;;;;;5105269;27;20047;-68
2022/08/17 01:09:31;;;;;;;53.67;45.22;;;19.50;99.90;;;;;;5122067;27;20044;-67
2022/08/17 01:11:56;;;;;;;59.33;48.58;;;19.50;99.90;;;;;;5122624;27;20189;-67
2022/08/17 01:14:24;;;;;;;61.83;49.05;;;19.30;99.90;;;;;;5122705;27;20383;-67
2022/08/17 01:16:52;;;;;;;59.20;49.25;;;19.20;99.90;;;;;;5120975;27;20042;-68
2022/08/17 01:19:34;;;;;;;59.72;50.28;;;19.30;99.90;;;;;;5121397;27;20039;-67
2022/08/17 01:22:22;;;;;;;64.10;52.75;;;19.30;99.90;;;;;;5121556;27;20049;-68
2022/08/17 01:24:57;;;;;;;57.65;49.60;;;19.20;99.90;;;;;;5122029;27;20050;-69
2022/08/17 01:27:25;;;;;;;63.58;51.15;;;19.10;99.90;;;;;;5094198;27;20042;-67
2022/08/17 01:29:57;;;;;;;68.18;51.50;;;19.30;99.90;;;;;;5106761;27;20484;-67
2022/08/17 01:32:24;;;;;;;72.23;54.17;;;19.20;99.90;;;;;;5104793;27;20034;-67
2022/08/17 01:34:51;;;;;;;65.72;50.17;;;19.10;99.90;;;;;;5121577;27;20026;-67
2022/08/17 01:37:19;;;;;;;63.22;50.35;;;19.10;99.90;;;;;;5103212;27;20042;-67
2022/08/17 01:39:54;;;;;;;61.17;50.90;;;19.10;99.90;;;;;;5097882;27;20034;-67
2022/08/17 01:42:20;;;;;;;62.80;50.65;;;19.10;99.90;;;;;;5121980;27;20520;-67
2022/08/17 01:44:46;;;;;;;56.78;48.35;;;19.00;99.90;;;;;;5123713;27;20047;-67
2022/08/17 01:47:11;;;;;;;61.00;48.92;;;19.20;99.90;;;;;;5106357;27;20286;-67
2022/08/17 01:49:37;;;;;;;59.97;48.60;;;19.30;99.90;;;;;;5090271;27;20541;-67
2022/08/17 01:52:07;;;;;;;60.97;49.65;;;19.10;99.90;;;;;;5114120;27;20053;-67
2022/08/17 01:54:34;;;;;;;63.30;50.33;;;19.20;99.90;;;;;;5139693;27;20030;-67
2022/08/17 01:56:59;;;;;;;60.08;47.90;;;19.20;99.90;;;;;;5105288;27;20031;-67
2022/08/17 01:59:25;;;;;;;59.50;46.88;;;19.00;99.90;;;;;;5123951;27;20039;-68
2022/08/17 02:01:51;;;;;;;61.05;49.47;;;19.10;99.90;;;;;;5122674;27;20441;-68
2022/08/17 02:04:17;;;;;;;59.95;49.38;;;19.10;99.90;;;;;;5094062;27;20050;-68
2022/08/17 02:06:42;;;;;;;64.97;51.38;;;19.10;99.90;;;;;;5105153;27;20034;-68
2022/08/17 02:09:09;;;;;;;63.45;48.75;;;19.10;99.90;;;;;;5104634;27;20130;-68
2022/08/17 02:11:38;;;;;;;57.03;45.75;;;19.00;99.90;;;;;;5106661;27;20129;-67
2022/08/17 02:14:07;;;;;;;52.47;44.90;;;19.10;99.90;;;;;;5121958;27;20390;-68
2022/08/17 02:16:35;;;;;;;56.28;47.53;;;19.20;99.90;;;;;;5123038;27;20027;-67
2022/08/17 02:19:01;;;;;;;64.60;49.65;;;19.20;99.90;;;;;;5122651;27;20039;-68
2022/08/17 02:21:27;;;;;;;60.95;49.08;;;19.00;99.90;;;;;;5121527;27;20454;-67
2022/08/17 02:23:54;;;;;;;57.17;48.10;;;18.90;99.90;;;;;;5111730;27;20065;-68
2022/08/17 02:26:20;;;;;;;63.72;48.05;;;19.10;99.90;;;;;;5107072;27;21281;-67
2022/08/17 02:28:46;;;;;;;58.97;48.60;;;19.10;99.90;;;;;;5123985;27;20030;-67
2022/08/17 02:31:12;;;;;;;60.08;47.80;;;18.90;99.90;;;;;;5122755;27;20039;-68
2022/08/17 02:33:38;;;;;;;66.05;51.83;;;19.10;99.90;;;;;;5114421;27;20099;-67
2022/08/17 02:36:07;;;;;;;76.72;57.17;;;18.90;99.90;;;;;;5122144;27;20070;-67
2022/08/17 02:38:34;;;;;;;75.65;57.03;;;19.10;99.90;;;;;;5113058;27;20041;-69
2022/08/17 02:41:00;;;;;;;81.47;59.80;;;19.00;99.90;;;;;;5120865;27;20074;-67
2022/08/17 02:43:26;;;;;;;70.55;55.55;;;19.10;99.90;;;;;;5114728;27;20334;-66
2022/08/17 02:45:52;;;;;;;75.40;56.67;;;19.10;99.90;;;;;;5107259;27;20070;-67
2022/08/17 02:48:18;;;;;;;82.15;58.33;;;19.10;99.90;;;;;;5123134;27;20099;-68
2022/08/17 02:50:44;;;;;;;70.25;56.50;;;19.00;99.90;;;;;;5121640;27;20043;-68
2022/08/17 02:53:10;;;;;;;88.40;65.68;;;18.90;99.90;;;;;;5104998;27;20091;-67
2022/08/17 02:55:39;;;;;;;81.85;60.35;;;18.90;99.90;;;;;;5122680;27;20046;-65
2022/08/17 02:58:06;;;;;;;86.65;64.18;;;18.90;99.90;;;;;;5106531;27;20125;-66
2022/08/17 03:00:35;;;;;;;96.15;65.85;;;18.90;99.90;;;;;;5124772;27;20039;-66
2022/08/17 03:03:03;;;;;;;87.40;62.95;;;18.90;99.90;;;;;;5122794;27;20126;-66
2022/08/17 03:05:31;;;;;;;87.15;61.75;;;19.10;99.90;;;;;;5123375;27;20077;-66
2022/08/17 03:07:57;;;;;;;87.13;61.40;;;19.10;99.90;;;;;;5108129;27;20322;-66
2022/08/17 03:10:23;;;;;;;88.65;63.08;;;18.80;99.90;;;;;;5092450;27;20043;-66
2022/08/17 03:12:50;;;;;;;79.40;59.15;;;19.10;99.90;;;;;;5128117;27;20034;-65
2022/08/17 03:15:28;;;;;;;88.80;62.63;;;19.10;99.90;;;;;;5127072;27;20556;-65
2022/08/17 03:17:55;;;;;;;82.82;59.85;;;18.80;99.90;;;;;;5129163;27;20423;-67
2022/08/17 03:20:23;;;;;;;70.35;56.67;;;18.80;99.90;;;;;;5128261;27;20503;-66
2022/08/17 03:22:51;;;;;;;82.30;60.42;;;18.90;99.90;;;;;;5109041;27;20431;-66
2022/08/17 03:25:25;;;;;;;78.15;58.75;;;19.10;99.90;;;;;;5110135;27;20065;-66
2022/08/17 03:27:52;;;;;;;86.05;60.38;;;18.90;99.90;;;;;;5127602;27;20054;-65
2022/08/17 03:30:18;;;;;;;81.55;59.90;;;19.10;99.90;;;;;;5128034;27;20039;-66
2022/08/17 03:32:46;;;;;;;88.50;62.10;;;18.80;99.90;;;;;;5129515;27;20176;-66
2022/08/17 03:35:14;;;;;;;95.43;65.05;;;19.00;99.90;;;;;;5111871;27;20027;-67
2022/08/17 03:37:40;;;;;;;86.97;63.47;;;19.00;99.90;;;;;;5105340;27;20035;-67
2022/08/17 03:40:07;;;;;;;87.88;62.90;;;18.80;99.90;;;;;;5148385;27;20477;-66
2022/08/17 03:42:34;;;;;;;96.53;65.05;;;18.70;99.90;;;;;;5127719;27;20047;-66
2022/08/17 03:45:02;;;;;;;75.25;57.53;;;18.70;99.90;;;;;;5127020;27;20038;-67
2022/08/17 03:58:30;;;;;;;69.22;54.05;;;18.90;99.90;;;;;;5126507;27;20149;-67
2022/08/17 04:00:56;;;;;;;70.88;54.00;;;18.80;99.90;;;;;;5115697;27;20034;-67
2022/08/17 04:03:22;;;;;;;72.10;55.72;;;18.60;99.90;;;;;;5122812;27;20063;-67
2022/08/17 04:05:48;;;;;;;62.20;50.03;;;18.80;99.90;;;;;;5073189;28;20039;-67
2022/08/17 04:08:14;;;;;;;74.97;55.72;;;18.80;99.90;;;;;;5104942;28;20099;-66
2022/08/17 04:10:39;;;;;;;64.35;53.47;;;18.70;99.90;;;;;;5106435;28;20492;-68
2022/08/17 04:13:05;;;;;;;76.63;56.08;;;18.80;99.90;;;;;;5122484;28;20062;-67
2022/08/17 04:15:32;;;;;;;68.55;55.45;;;18.80;99.90;;;;;;5104585;28;20039;-66
2022/08/17 04:17:58;;;;;;;71.45;57.20;;;18.90;99.90;;;;;;5123053;27;20051;-67
2022/08/17 04:20:24;;;;;;;67.95;56.38;;;18.70;99.90;;;;;;5122153;28;20043;-69
2022/08/17 04:23:03;;;;;;;73.95;57.38;;;18.80;99.90;;;;;;5122903;28;20108;-67
2022/08/17 04:25:32;;;;;;;72.88;57.47;;;18.70;99.90;;;;;;5104881;28;20469;-67
2022/08/17 04:27:59;;;;;;;74.85;60.05;;;18.60;99.90;;;;;;5123466;28;20035;-68
2022/08/17 04:30:27;;;;;;;74.45;58.17;;;18.60;99.90;;;;;;5125165;28;20746;-66
2022/08/17 04:33:04;;;;;;;73.10;58.72;;;18.80;99.90;;;;;;5096756;28;20473;-66
2022/08/17 04:35:32;;;;;;;80.57;61.97;;;18.80;99.90;;;;;;5118474;28;20035;-68
2022/08/17 04:37:58;;;;;;;78.30;62.22;;;18.60;99.90;;;;;;5106727;28;20047;-66
2022/08/17 04:43:14;;;;;;;66.38;55.35;;;18.60;99.90;;;;;;5123150;28;20058;-67
2022/08/17 04:45:49;;;;;;;59.67;49.65;;;18.70;99.90;;;;;;5125203;27;20164;-67
2022/08/17 04:48:15;;;;;;;76.60;59.55;;;18.50;99.90;;;;;;5121758;28;20082;-67
2022/08/17 04:50:46;;;;;;;72.05;58.63;;;18.80;99.90;;;;;;5104586;28;20058;-68
2022/08/17 04:53:13;;;;;;;78.80;58.42;;;18.80;99.90;;;;;;5104720;28;20039;-66
2022/08/17 04:55:39;;;;;;;81.32;63.42;;;18.60;99.90;;;;;;5124053;28;20035;-68
2022/08/17 04:58:05;;;;;;;79.05;61.13;;;18.80;99.90;;;;;;5122539;28;20500;-67
2022/08/17 05:00:31;;;;;;;83.38;61.67;;;18.70;99.90;;;;;;5122771;28;20038;-67
2022/08/17 05:02:57;;;;;;;94.03;65.32;;;18.80;99.90;;;;;;5083932;27;1105685;-67
2022/08/17 05:05:31;;;;;;;81.00;62.05;;;18.80;99.90;;;;;;5116491;27;20062;-68
2022/08/17 05:08:01;;;;;;;74.15;57.55;;;18.90;99.90;;;;;;5118886;27;20043;-66
2022/08/17 05:10:29;;;;;;;71.25;56.08;;;19.00;99.90;;;;;;5124295;27;20122;-67
2022/08/17 05:13:00;;;;;;;72.88;57.83;;;19.00;99.90;;;;;;5101246;27;20050;-67
2022/08/17 05:15:27;;;;;;;70.32;58.35;;;19.10;99.90;;;;;;5112974;27;20066;-67
2022/08/17 05:17:52;;;;;;;69.78;57.30;;;19.20;99.90;;;;;;5123627;27;20039;-68
2022/08/17 05:20:20;;;;;;;73.72;58.00;;;19.20;99.90;;;;;;5105563;27;20177;-66
2022/08/17 05:22:54;;;;;;;73.63;58.58;;;19.10;99.90;;;;;;5097777;27;20412;-68
2022/08/17 05:25:22;;;;;;;70.13;55.63;;;19.30;99.90;;;;;;5102892;27;20376;-67
2022/08/17 05:27:48;;;;;;;69.35;57.92;;;19.20;99.90;;;;;;5105772;27;20035;-67
2022/08/17 05:30:16;;;;;;;76.75;59.42;;;19.30;99.90;;;;;;5087859;27;20052;-67
2022/08/17 05:32:59;;;;;;;77.15;59.53;;;19.10;99.90;;;;;;5104766;27;20463;-67
2022/08/17 05:35:26;;;;;;;;;;;19.40;99.90;;;;;;5121758;27;20042;-68
2022/08/17 05:37:52;;;;;;;71.65;57.60;;;19.20;99.90;;;;;;5093003;27;20258;-66
2022/08/17 05:40:20;;;;;;;72.43;58.05;;;19.40;99.90;;;;;;5123144;27;20512;-66
2022/08/17 05:42:46;;;;;;;77.95;60.85;;;19.20;99.90;;;;;;5123603;27;20629;-66
2022/08/17 05:45:14;;;;;;;78.63;61.30;;;19.50;99.90;;;;;;5103286;27;20412;-67
2022/08/17 05:47:43;;;;;;;77.43;63.00;;;19.30;99.90;;;;;;5120420;27;20078;-66
2022/08/17 05:50:12;;;;;;;63.55;54.08;;;19.40;99.90;;;;;;5095080;27;20043;-69
2022/08/17 05:53:02;;;;;;;73.35;64.53;;;19.30;99.90;;;;;;5112670;27;20545;-69
2022/08/17 05:55:55;;;;;;;71.38;62.13;;;19.20;99.90;;;;;;5111630;27;20042;-66
2022/08/17 05:58:40;;;;;;;68.40;59.08;;;19.40;99.90;;;;;;5086266;27;20042;-68
2022/08/17 06:01:42;;;;;;;75.32;64.60;;;19.30;99.90;;;;;;5110908;27;20039;-68
2022/08/17 06:04:38;;;;;;;82.65;69.55;;;19.20;99.90;;;;;;5109404;27;20055;-68
2022/08/17 06:07:27;;;;;;;85.13;69.88;;;19.20;99.90;;;;;;5092784;27;20047;-68
2022/08/17 06:10:04;;;;;;;90.55;74.68;;;19.30;99.90;;;;;;5079211;27;20046;-67
2022/08/17 06:13:18;;;;;;;103.53;80.63;;;19.30;99.90;;;;;;5095616;27;20335;-68
2022/08/17 06:16:03;;;;;;;112.38;83.70;;;19.30;99.90;;;;;;5033221;28;20737;-68
2022/08/17 06:18:42;;;;;;;102.55;79.07;;;19.50;99.90;;;;;;5033222;28;20767;-68
2022/08/17 06:21:12;;;;;;;105.47;77.47;;;19.40;99.90;;;;;;5090520;27;20119;-68
2022/08/17 06:23:49;;;;;;;97.00;72.45;;;19.30;99.90;;;;;;5111338;27;20575;-68
2022/08/17 06:26:25;;;;;;;97.30;71.97;;;19.40;99.90;;;;;;5094146;27;20046;-68
2022/08/17 06:29:02;;;;;;;106.97;71.15;;;19.70;99.90;;;;;;5109960;27;20227;-68
2022/08/17 06:31:33;;;;;;;105.25;73.43;;;19.50;99.90;;;;;;5110488;27;20359;-68
2022/08/17 06:34:01;;;;;;;102.03;71.93;;;19.50;99.90;;;;;;5092903;27;20146;-68
2022/08/17 06:37:11;;;;;;;98.70;69.65;;;19.70;99.90;;;;;;5080590;27;20116;-68
2022/08/17 06:40:21;;;;;;;103.45;73.20;;;19.50;99.90;;;;;;5092699;27;20388;-68
2022/08/17 06:43:25;;;;;;;109.03;72.13;;;19.60;99.90;;;;;;5058070;27;20350;-67
2022/08/17 06:46:00;;;;;;;109.32;71.75;;;19.80;99.90;;;;;;5093912;27;20047;-66
2022/08/17 06:49:10;;;;;;;129.88;72.50;;;19.80;99.90;;;;;;5094566;28;20047;-67
2022/08/17 06:51:42;;;;;;;125.82;65.82;;;19.60;99.90;;;;;;5111740;27;20455;-67
2022/08/17 06:54:18;;;;;;;131.90;62.40;;;19.80;99.90;;;;;;5113354;28;20138;-67
2022/08/17 06:57:13;;;;;;;140.68;65.57;;;19.80;99.90;;;;;;5111907;28;20035;-67
2022/08/17 06:59:53;;;;;;;173.02;71.60;;;19.70;99.90;;;;;;5077690;28;20146;-67
2022/08/17 07:02:27;;;;;;;165.80;66.28;;;19.90;99.90;;;;;;5093531;28;20152;-67
2022/08/17 07:04:53;;;;;;;155.20;68.18;;;19.70;99.90;;;;;;5110163;28;20047;-67
2022/08/17 07:10:08;;;;;;;162.40;67.93;;;19.70;99.90;;;;;;5110526;28;20654;-68
2022/08/17 07:12:38;;;;;;;182.35;71.93;;;19.70;99.90;;;;;;5093661;28;20403;-67
2022/08/17 07:15:20;;;;;;;113.28;52.90;;;19.70;99.90;;;;;;5077285;28;20043;-67
2022/08/17 07:17:46;;;;;;;123.40;60.15;;;19.60;99.90;;;;;;5110632;28;20035;-68
2022/08/17 07:20:21;;;;;;;139.38;62.47;;;19.50;99.90;;;;;;5094568;28;20039;-67
2022/08/17 07:22:52;;;;;;;124.88;57.28;;;19.70;99.90;;;;;;5111639;28;20452;-67
2022/08/17 07:25:20;;;;;;;148.70;63.22;;;19.60;99.90;;;;;;5110709;28;20130;-67
2022/08/17 07:27:58;;;;;;;125.22;57.17;;;19.50;99.90;;;;;;5076636;28;20068;-67
2022/08/17 07:30:47;;;;;;;128.60;55.95;;;19.50;99.90;;;;;;5110986;28;20423;-67
2022/08/17 07:33:26;;;;;;;130.55;54.60;;;19.50;99.90;;;;;;5094566;28;20079;-67
2022/08/17 07:35:53;;;;;;;135.52;55.78;;;19.50;99.90;;;;;;5111372;28;20046;-67
2022/08/17 07:38:27;;;;;;;124.65;51.88;;;19.50;99.90;;;;;;5095612;28;20349;-66
2022/08/17 07:41:01;;;;;;;;;;;19.60;99.90;;;;;;5114127;28;20492;-66
2022/08/17 07:43:31;;;;;;;156.30;54.30;;;19.60;99.90;;;;;;5114633;28;20554;-65
2022/08/17 07:48:49;;;;;;;133.70;49.25;;;19.60;99.90;;;;;;5116518;28;20043;-65
2022/08/17 07:51:25;;;;;;;128.43;58.05;;;19.50;99.90;;;;;;5115224;27;20043;-66
2022/08/17 07:53:53;;;;;;;142.55;61.13;;;19.40;99.90;;;;;;5117094;27;20047;-66
2022/08/17 07:56:45;;;;;;;158.80;63.58;;;19.20;99.90;;;;;;5118011;27;20152;-66
2022/08/17 07:59:20;;;;;;;170.80;61.97;;;19.30;99.90;;;;;;5118653;27;20129;-66
2022/08/17 08:02:02;;;;;;;144.02;57.72;;;19.30;99.90;;;;;;5118183;27;20609;-66
2022/08/17 08:04:44;;;;;;;172.88;65.72;;;19.40;99.90;;;;;;5118566;27;20158;-66
2022/08/17 08:07:16;;;;;;;212.85;72.30;;;19.30;99.90;;;;;;5084761;27;20228;-66
2022/08/17 08:10:00;;;;;;;179.38;67.32;;;19.40;99.90;;;;;;5117212;27;20701;-66
2022/08/17 08:12:32;;;;;;;175.07;68.35;;;19.20;99.90;;;;;;5117711;27;20039;-66
2022/08/17 08:15:12;;;;;;;169.95;66.60;;;19.30;99.90;;;;;;5117330;27;20039;-66
2022/08/17 08:17:46;;;;;;;178.15;68.40;;;19.20;99.90;;;;;;5134845;27;20043;-66
2022/08/17 08:20:12;;;;;;;176.20;69.85;;;19.30;99.90;;;;;;5116070;27;20047;-65
2022/08/17 08:22:51;;;;;;;168.25;66.63;;;19.50;99.90;;;;;;5117563;27;20087;-65
2022/08/17 08:25:30;;;;;;;149.48;63.88;;;19.40;99.90;;;;;;5100319;27;20043;-66
2022/08/17 08:28:13;;;;;;;149.10;66.90;;;19.50;99.90;;;;;;5118038;27;20512;-66
2022/08/17 08:30:47;;;;;;;149.02;65.25;;;19.50;99.90;;;;;;5100321;27;20512;-66
2022/08/17 08:33:32;;;;;;;114.85;56.25;;;19.30;99.90;;;;;;5117218;27;20138;-66
2022/08/17 08:36:38;;;;;;;132.07;62.95;;;19.50;99.90;;;;;;5099464;27;20043;-66
2022/08/17 08:39:32;;;;;;;121.55;59.90;;;19.50;99.90;;;;;;5095094;27;20047;-66
2022/08/17 08:42:06;;;;;;;;;;;19.60;99.90;;;;;;5116999;27;20083;-66
2022/08/17 08:44:57;;;;;;;100.53;56.08;;;19.60;99.90;;;;;;5099979;27;20238;-66
2022/08/17 08:47:32;;;;;;;69.05;45.45;;;19.80;99.90;;;;;;5116506;27;20066;-66
2022/08/17 08:50:03;;;;;;;64.10;43.15;;;20.00;99.90;;;;;;5115933;27;20051;-66
2022/08/17 08:52:34;;;;;;;56.78;41.15;;;19.90;99.90;;;;;;5116424;27;20126;-66
2022/08/17 08:55:31;;;;;;;55.63;40.33;;;20.00;99.90;;;;;;5116334;27;20440;-66
2022/08/17 08:58:13;;;;;;;82.95;52.70;;;20.10;99.90;;;;;;5115580;27;20039;-66
2022/08/17 09:00:46;;;;;;;56.00;38.57;;;20.40;99.90;;;;;;5097713;27;20049;-67
2022/08/17 09:03:22;;;;;;;42.88;32.55;;;20.60;99.90;;;;;;5113977;27;20297;-66
2022/08/17 09:05:57;;;;;;;37.10;29.08;;;20.70;99.90;;;;;;5097921;27;20046;-66
2022/08/17 09:08:43;;;;;;;43.38;35.45;;;20.70;99.90;;;;;;5115665;27;20039;-66
2022/08/17 09:11:31;;;;;;;31.42;27.42;;;20.70;99.90;;;;;;5114964;27;20878;-66
2022/08/17 09:14:07;;;;;;;33.22;29.73;;;20.90;99.90;;;;;;5096985;27;20462;-66
2022/08/17 09:16:43;;;;;;;39.42;35.08;;;21.00;99.90;;;;;;5112528;27;20039;-66
2022/08/17 09:19:29;;;;;;;40.75;36.38;;;21.00;99.90;;;;;;5112307;27;20283;-66
2022/08/17 09:22:20;;;;;;;36.60;32.80;;;21.00;99.90;;;;;;5111693;27;20205;-66
2022/08/17 09:24:55;;;;;;;32.15;28.95;;;21.00;99.90;;;;;;5112075;27;20511;-66
2022/08/17 09:27:29;;;;;;;40.50;36.40;;;21.10;99.90;;;;;;5112300;27;20391;-66
2022/08/17 09:30:02;;;;;;;50.33;44.30;;;21.20;99.90;;;;;;5111858;27;20135;-66
2022/08/17 09:32:48;;;;;;;47.15;42.13;;;21.30;99.90;;;;;;5111461;27;20042;-66
2022/08/17 09:35:26;;;;;;;52.78;46.63;;;21.40;99.90;;;;;;5112419;27;20031;-66
2022/08/17 09:38:00;;;;;;;54.28;48.38;;;21.60;99.90;;;;;;5113624;27;20035;-67
2022/08/17 09:40:33;;;;;;;53.58;47.78;;;21.80;99.90;;;;;;5112106;27;20392;-67
2022/08/17 09:43:08;;;;;;;57.35;50.95;;;21.90;99.90;;;;;;5111508;27;20605;-66
2022/08/17 09:45:41;;;;;;;61.63;51.50;;;22.30;99.90;;;;;;5095694;27;20512;-66
2022/08/17 09:48:28;;;;;;;48.15;42.88;;;22.80;99.90;;;;;;5111634;27;20043;-65
2022/08/17 09:51:09;;;;;;;44.75;39.88;;;23.40;99.90;;;;;;5094649;27;20035;-66
2022/08/17 09:53:37;;;;;;;44.58;39.65;;;23.80;99.90;;;;;;5094660;27;20276;-66
2022/08/17 09:56:27;;;;;;;45.28;40.50;;;24.20;99.90;;;;;;5111779;27;20043;-66
2022/08/17 09:59:28;;;;;;;45.83;41.08;;;24.40;99.90;;;;;;5078153;27;20207;-66
2022/08/17 10:02:12;;;;;;;46.78;42.15;;;24.50;99.90;;;;;;5111651;27;20576;-65
2022/08/17 10:04:46;;;;;;;48.95;43.88;;;24.50;99.90;;;;;;5115156;27;20265;-66
2022/08/17 10:07:33;;;;;;;47.15;42.45;;;24.30;99.90;;;;;;5114869;27;20496;-66
2022/08/17 10:10:20;;;;;;;44.42;39.95;;;24.40;99.90;;;;;;5114687;27;20207;-66
2022/08/17 10:13:08;;;;;;;43.00;38.85;;;24.00;99.90;;;;;;5115162;27;20042;-66
2022/08/17 10:15:55;;;;;;;42.50;38.22;;;23.90;99.90;;;;;;5114712;27;20439;-65
2022/08/17 10:18:27;;;;;;;45.08;40.65;;;23.70;99.90;;;;;;5115133;27;20035;-66
2022/08/17 10:26:58;;;;;;;51.28;45.88;;;23.40;99.90;;;;;;5114891;27;20526;-66
2022/08/17 10:29:27;;;;;;;50.33;45.15;;;23.40;99.90;;;;;;5115041;27;20035;-65
2022/08/17 10:32:03;;;;;;;49.38;44.35;;;23.30;99.90;;;;;;5114350;27;20126;-66
2022/08/17 10:34:55;;;;;;;49.78;45.05;;;23.40;99.90;;;;;;5114129;27;20488;-66
2022/08/17 10:37:45;;;;;;;47.55;42.95;;;23.50;99.90;;;;;;5115253;27;20613;-66
2022/08/17 10:40:44;;;;;;;43.03;38.80;;;24.10;99.90;;;;;;5114233;27;20235;-66
2022/08/17 10:43:47;;;;;;;42.70;38.55;;;25.00;99.90;;;;;;5067152;27;20051;-67
2022/08/17 10:46:15;;;;;;;;;;;25.10;99.90;;;;;;5115260;27;20477;-66
2022/08/17 10:48:41;;;;;;;39.85;35.78;;;24.80;99.90;;;;;;5114309;27;20330;-66
2022/08/17 10:51:33;;;;;;;39.83;36.03;;;24.80;99.90;;;;;;5096997;27;20039;-67
2022/08/17 10:54:00;;;;;;;34.90;31.70;;;24.60;99.90;;;;;;5114471;27;20621;-67
2022/08/17 10:56:49;;;;;;;36.15;32.88;;;24.70;99.90;;;;;;5098230;27;20065;-66
2022/08/17 10:59:33;;;;;;;34.53;31.15;;;24.50;99.90;;;;;;5114311;27;20091;-68
2022/08/17 11:02:08;;;;;;;28.40;25.85;;;24.40;99.90;;;;;;5133019;27;20046;-67
2022/08/17 11:04:59;;;;;;;29.25;26.65;;;24.40;99.90;;;;;;5130911;27;20457;-66
2022/08/17 11:07:44;;;;;;;24.95;22.60;;;24.30;99.90;;;;;;5114566;27;20249;-67
2022/08/17 11:10:17;;;;;;;22.70;20.63;;;24.10;99.90;;;;;;5114106;27;20615;-66
2022/08/17 11:13:00;;;;;;;23.23;21.13;;;23.90;99.90;;;;;;5132826;27;20107;-66
2022/08/17 11:15:59;;;;;;;20.23;18.30;;;23.80;99.90;;;;;;5113884;27;20420;-67
2022/08/17 11:18:27;;;;;;;19.50;17.67;;;23.70;99.90;;;;;;5095721;27;20038;-66
2022/08/17 11:21:16;;;;;;;19.48;17.55;;;23.60;99.90;;;;;;5113494;27;20042;-67
2022/08/17 11:24:00;;;;;;;17.25;15.43;;;23.50;99.90;;;;;;5096592;27;20054;-67
2022/08/17 11:26:35;;;;;;;17.58;15.98;;;23.50;99.90;;;;;;5096932;27;20267;-66
2022/08/17 11:29:17;;;;;;;16.23;14.60;;;23.50;99.90;;;;;;5137092;27;20520;-66
2022/08/17 11:31:59;;;;;;;20.45;18.45;;;23.50;99.90;;;;;;5117839;27;20046;-68
2022/08/17 11:34:27;;;;;;;17.45;15.85;;;23.40;99.90;;;;;;5117763;27;20428;-66
2022/08/17 11:37:30;;;;;;;19.60;17.80;;;23.30;99.90;;;;;;5117644;27;20111;-67
2022/08/17 11:40:09;;;;;;;19.90;17.95;;;23.40;99.90;;;;;;5100436;27;20515;-67
2022/08/17 11:42:35;;;;;;;24.85;22.58;;;23.30;99.90;;;;;;5118510;27;20583;-67
2022/08/17 11:45:31;;;;;;;23.00;20.90;;;23.40;99.90;;;;;;5118113;27;20216;-67
2022/08/17 11:51:32;;;;;;;20.35;18.27;;;23.40;99.90;;;;;;5116931;27;20121;-68
2022/08/17 11:54:01;;;;;;;22.00;19.73;;;23.40;99.90;;;;;;5100032;27;20153;-67
2022/08/17 11:56:49;;;;;;;23.83;21.30;;;23.50;99.90;;;;;;5117260;27;20042;-68
2022/08/17 11:59:35;;;;;;;21.65;19.35;;;23.70;99.90;;;;;;5117216;27;20046;-68
2022/08/17 12:02:24;;;;;;;20.95;18.98;;;24.10;99.90;;;;;;5116854;27;20500;-67
2022/08/17 12:05:24;;;;;;;20.13;18.02;;;24.40;99.90;;;;;;5116951;27;20046;-66
2022/08/17 12:08:07;;;;;;;19.17;17.17;;;24.80;99.90;;;;;;5117114;27;20250;-66
2022/08/17 12:10:38;;;;;;;17.83;15.63;;;25.30;99.90;;;;;;5117411;27;20137;-65
2022/08/17 12:13:14;;;;;;;18.73;16.80;;;25.30;99.90;;;;;;5117741;27;20502;-65
2022/08/17 12:15:49;;;;;;;16.95;15.15;;;25.50;99.90;;;;;;5135174;27;20313;-68
2022/08/17 12:18:27;;;;;;;18.55;16.55;;;25.30;99.90;;;;;;5099507;27;20080;-67
2022/08/17 12:21:11;;;;;;;16.40;14.68;;;25.00;99.90;;;;;;5117124;27;20053;-68
2022/08/17 12:23:59;;;;;;;17.70;15.55;;;24.70;99.90;;;;;;5116632;27;20047;-68
2022/08/17 12:26:29;;;;;;;19.25;15.50;;;24.50;99.90;;;;;;5117328;27;20039;-67
2022/08/17 12:29:03;;;;;;;17.55;15.80;;;24.60;99.90;;;;;;5099851;27;20034;-67
2022/08/17 12:31:57;;;;;;;17.25;15.20;;;24.40;99.90;;;;;;5116399;27;20117;-68
2022/08/17 12:34:26;;;;;;;19.38;16.27;;;24.40;99.90;;;;;;5096922;27;20155;-68
2022/08/17 12:37:00;;;;;;;19.10;17.08;;;24.30;99.90;;;;;;5116618;27;20135;-66
2022/08/17 12:39:28;;;;;;;19.70;17.67;;;24.10;99.90;;;;;;5098904;27;20677;-68
2022/08/17 12:41:59;;;;;;;22.80;17.48;;;23.80;99.90;;;;;;5116305;27;20066;-68
2022/08/17 12:44:34;;;;;;;18.02;16.23;;;23.90;99.90;;;;;;5099436;27;20039;-66
2022/08/17 12:47:03;;;;;;;19.65;17.65;;;24.20;99.90;;;;;;5099301;27;20095;-68
2022/08/17 12:49:40;;;;;;;19.52;16.75;;;24.20;99.90;;;;;;5116429;27;20524;-66
2022/08/17 12:52:23;;;;;;;19.48;15.88;;;24.00;99.90;;;;;;5116672;27;20039;-66
2022/08/17 12:54:51;;;;;;;20.40;16.52;;;24.00;99.90;;;;;;5115888;27;20057;-66
2022/08/17 12:57:40;;;;;;;16.85;15.05;;;24.10;99.90;;;;;;5116765;27;20672;-66
2022/08/17 13:00:20;;;;;;;15.77;14.00;;;24.10;99.90;;;;;;5115558;27;20585;-67
2022/08/17 13:02:50;;;;;;;15.00;13.35;;;24.10;99.90;;;;;;5099030;27;20500;-66
2022/08/17 13:05:30;;;;;;;19.15;14.13;;;24.00;99.90;;;;;;5115940;27;20766;-67
2022/08/17 13:07:58;;;;;;;16.42;14.25;;;23.90;99.90;;;;;;5115856;27;20307;-67
2022/08/17 13:10:35;;;;;;;17.00;13.35;;;24.00;99.90;;;;;;5099374;27;20039;-67
2022/08/17 13:13:16;;;;;;;15.85;13.52;;;23.70;99.90;;;;;;5115834;27;20047;-66
2022/08/17 13:16:00;;;;;;;15.25;13.50;;;23.80;99.90;;;;;;5115672;27;20156;-66
2022/08/17 13:18:37;;;;;;;15.38;13.68;;;23.80;99.90;;;;;;5129709;27;20228;-67
2022/08/17 13:21:05;;;;;;;16.95;14.15;;;23.80;99.90;;;;;;5112692;27;20050;-67
2022/08/17 13:23:31;;;;;;;19.00;14.70;;;23.80;99.90;;;;;;5092951;27;20043;-67
2022/08/17 13:26:04;;;;;;;18.50;15.15;;;23.70;99.90;;;;;;5118155;27;20083;-66
2022/08/17 13:28:31;;;;;;;18.10;15.88;;;23.70;99.90;;;;;;5114813;27;20129;-68
2022/08/17 13:31:35;;;;;;;16.13;14.25;;;23.70;99.90;;;;;;5113261;27;20996;-67